Time;durP1;ratioP1;P1;durP2;ratioP2;P2;SDS_P1;SDS_P2;PMS_P1;PMS_P2;Temp;Humidity;BMP_temperature;BMP_pressure;BME280_temperature;BME280_humidity;BME280_pressure;Samples;Min_cycle;Max_cycle;Signal;HPM_P1;HPM_P2
2023/09/15 00:01:27;;;;;;;17.05;15.45;;;;;;;12.94;100.00;101810.06;4997522;28;20108;-67
2023/09/15 00:03:53;;;;;;;18.60;15.75;;;;;;;12.94;100.00;101814.56;5018171;28;20036;-68
2023/09/15 00:06:18;;;;;;;17.75;15.77;;;;;;;12.89;100.00;101812.09;5019236;28;20048;-68
2023/09/15 00:08:43;;;;;;;16.85;15.25;;;;;;;12.89;100.00;101816.56;5018921;28;20021;-66
2023/09/15 00:11:16;;;;;;;17.13;15.38;;;;;;;12.84;100.00;101811.44;5018341;28;20137;-67
2023/09/15 00:13:42;;;;;;;16.65;15.05;;;;;;;12.83;100.00;101811.47;5020318;28;20029;-67
2023/09/15 00:16:07;;;;;;;16.95;15.23;;;;;;;12.79;100.00;101805.44;5019170;28;20044;-67
2023/09/15 00:18:33;;;;;;;16.13;14.57;;;;;;;12.71;100.00;101807.59;5016515;28;20045;-69
2023/09/15 00:20:59;;;;;;;16.85;15.15;;;;;;;12.66;100.00;101798.88;5019655;28;20109;-69
2023/09/15 00:23:24;;;;;;;15.80;14.30;;;;;;;12.59;100.00;101798.31;5019685;28;20962;-68
2023/09/15 00:25:52;;;;;;;16.98;15.27;;;;;;;12.57;100.00;101794.81;5000816;28;20128;-68
2023/09/15 00:28:17;;;;;;;17.30;15.45;;;;;;;12.57;100.00;101791.28;5018964;28;20041;-68
2023/09/15 00:30:43;;;;;;;17.50;15.80;;;;;;;12.55;100.00;101793.16;5000705;28;20120;-67
2023/09/15 00:33:08;;;;;;;18.00;16.13;;;;;;;12.51;100.00;101799.56;5019660;28;20033;-67
2023/09/15 00:35:33;;;;;;;18.65;16.75;;;;;;;12.48;100.00;101789.03;5018207;28;20017;-67
2023/09/15 00:37:59;;;;;;;18.25;16.45;;;;;;;12.48;100.00;101789.03;5001254;28;20103;-67
2023/09/15 00:40:24;;;;;;;18.50;16.48;;;;;;;12.44;100.00;101786.47;5018417;28;20025;-67
2023/09/15 00:42:51;;;;;;;18.20;16.40;;;;;;;12.43;100.00;101790.09;5017611;28;20037;-66
2023/09/15 00:45:22;;;;;;;18.17;16.27;;;;;;;12.34;100.00;101795.84;5016043;28;20104;-67
2023/09/15 00:47:57;;;;;;;18.75;16.95;;;;;;;12.38;100.00;101789.44;5020227;28;20091;-66
2023/09/15 00:50:26;;;;;;;18.80;16.88;;;;;;;12.31;100.00;101789.75;5018851;28;20033;-67
2023/09/15 00:53:02;;;;;;;18.83;16.85;;;;;;;12.23;100.00;101778.53;5017708;28;20037;-67
2023/09/15 00:55:29;;;;;;;19.77;17.77;;;;;;;12.25;100.00;101782.88;5019594;28;20033;-67
2023/09/15 00:57:56;;;;;;;18.85;16.88;;;;;;;12.17;100.00;101780.53;5012755;28;20029;-67
2023/09/15 01:00:22;;;;;;;19.15;17.17;;;;;;;12.15;100.00;101774.38;5017826;28;20037;-65
2023/09/15 01:02:49;;;;;;;19.13;17.00;;;;;;;12.14;100.00;101777.13;5019322;28;20085;-66
2023/09/15 01:05:22;;;;;;;20.02;17.63;;;;;;;12.18;100.00;101776.06;5016910;28;20044;-66
2023/09/15 01:07:52;;;;;;;19.40;17.50;;;;;;;12.11;100.00;101771.91;5000932;28;20087;-67
2023/09/15 01:10:19;;;;;;;18.42;16.73;;;;;;;12.08;100.00;101769.38;5020328;28;20021;-67
2023/09/15 01:12:46;;;;;;;19.27;17.27;;;;;;;12.06;100.00;101765.91;5013521;28;20029;-67
2023/09/15 01:15:11;;;;;;;19.20;17.17;;;;;;;12.02;100.00;101761.63;5017233;28;20109;-66
2023/09/15 01:18:02;;;;;;;19.23;17.35;;;;;;;12.00;100.00;101760.81;5013544;28;20041;-67
2023/09/15 01:20:49;;;;;;;19.60;17.17;;;;;;;11.85;100.00;101765.88;5017485;28;20033;-67
2023/09/15 01:23:51;;;;;;;18.42;16.58;;;;;;;11.90;100.00;101763.00;5017439;28;20065;-68
2023/09/15 01:26:47;;;;;;;17.30;15.50;;;;;;;11.83;100.00;101759.75;5017874;28;20044;-66
2023/09/15 01:29:44;;;;;;;15.98;14.45;;;;;;;11.79;100.00;101754.53;5017626;28;20021;-66
2023/09/15 01:32:12;;;;;;;16.88;15.13;;;;;;;11.66;100.00;101755.06;5017483;28;20513;-67
2023/09/15 01:34:38;;;;;;;16.55;14.82;;;;;;;11.57;100.00;101752.75;4998156;28;21567;-67
2023/09/15 01:37:06;;;;;;;16.35;14.85;;;;;;;11.59;100.00;101750.91;5017077;28;20041;-65
2023/09/15 01:39:32;;;;;;;17.25;15.52;;;;;;;11.55;100.00;101749.31;5016420;28;20079;-66
2023/09/15 01:41:59;;;;;;;17.92;15.93;;;;;;;11.55;100.00;101749.31;5017335;28;20029;-67
2023/09/15 01:44:25;;;;;;;18.08;16.17;;;;;;;11.51;100.00;101746.81;5015559;28;20370;-67
2023/09/15 01:46:50;;;;;;;19.13;17.20;;;;;;;11.55;100.00;101751.09;5016987;28;20480;-66
2023/09/15 01:49:18;;;;;;;19.30;17.38;;;;;;;11.50;100.00;101740.63;5017327;28;20029;-67
2023/09/15 01:51:44;;;;;;;19.98;18.08;;;;;;;11.53;100.00;101744.94;5017361;28;20492;-66
2023/09/15 01:54:11;;;;;;;20.48;18.35;;;;;;;11.46;100.00;101726.56;5018983;28;20037;-66
2023/09/15 01:56:36;;;;;;;19.15;17.25;;;;;;;11.49;100.00;101741.53;5018103;28;20411;-68
2023/09/15 01:59:01;;;;;;;19.05;17.25;;;;;;;11.50;100.00;101750.44;5017096;28;20029;-67
2023/09/15 02:01:27;;;;;;;18.50;16.80;;;;;;;11.50;100.00;101739.78;5017411;28;20095;-67
2023/09/15 02:03:52;;;;;;;19.17;17.30;;;;;;;11.45;100.00;101738.16;5016091;28;20088;-67
2023/09/15 02:06:18;;;;;;;19.08;17.13;;;;;;;11.45;100.00;101732.81;5016858;28;20084;-67
2023/09/15 02:08:44;;;;;;;19.88;17.85;;;;;;;11.44;100.00;101740.84;5017155;28;20033;-68
2023/09/15 02:11:10;;;;;;;19.42;17.52;;;;;;;11.43;100.00;101737.31;5017140;28;20056;-68
2023/09/15 02:13:39;;;;;;;19.40;17.45;;;;;;;11.40;100.00;101740.09;5016592;28;20021;-68
2023/09/15 02:16:08;;;;;;;19.63;17.65;;;;;;;11.40;100.00;101742.78;5014914;28;20025;-67
2023/09/15 02:18:33;;;;;;;18.95;17.02;;;;;;;11.36;100.00;101737.63;5019568;28;20526;-67
2023/09/15 02:21:00;;;;;;;19.38;17.30;;;;;;;11.31;100.00;101729.81;5015640;28;20052;-65
2023/09/15 02:23:26;;;;;;;19.38;17.38;;;;;;;11.34;100.00;101745.69;5017748;28;20145;-67
2023/09/15 02:25:52;;;;;;;19.13;17.15;;;;;;;11.31;100.00;101739.63;4999614;28;20120;-67
2023/09/15 02:28:19;;;;;;;18.95;17.15;;;;;;;11.25;100.00;101727.41;5012931;28;20095;-68
2023/09/15 02:30:45;;;;;;;17.23;15.52;;;;;;;11.19;100.00;101728.50;5017647;28;20033;-68
2023/09/15 02:33:10;;;;;;;17.88;16.17;;;;;;;11.19;100.00;101731.16;5018670;28;20028;-66
2023/09/15 02:35:35;;;;;;;16.77;15.10;;;;;;;11.19;100.00;101719.66;5018310;28;20124;-68
2023/09/15 02:38:01;;;;;;;17.05;15.35;;;;;;;11.12;100.00;101718.13;5017552;28;20350;-67
2023/09/15 02:40:26;;;;;;;17.55;15.95;;;;;;;11.11;100.00;101716.41;5017626;28;20057;-66
2023/09/15 02:42:52;;;;;;;15.93;14.35;;;;;;;11.08;100.00;101721.88;5013634;28;20014;-67
2023/09/15 02:45:17;;;;;;;16.63;15.13;;;;;;;11.04;100.00;101721.13;5003893;28;20301;-66
2023/09/15 02:47:43;;;;;;;16.10;14.45;;;;;;;11.05;100.00;101717.53;5017660;28;20056;-66
2023/09/15 02:50:08;;;;;;;16.83;15.20;;;;;;;11.03;100.00;101716.72;5018006;28;20591;-66
2023/09/15 02:52:37;;;;;;;16.27;14.75;;;;;;;10.97;100.00;101728.47;5017647;28;20029;-67
2023/09/15 02:55:06;;;;;;;17.27;15.55;;;;;;;10.94;100.00;101712.59;5017091;28;20029;-67
2023/09/15 02:57:31;;;;;;;16.52;14.82;;;;;;;10.95;100.00;101725.03;5015620;28;20037;-68
2023/09/15 02:59:57;;;;;;;17.45;15.65;;;;;;;10.92;100.00;101718.94;5014347;28;20021;-67
2023/09/15 03:02:22;;;;;;;17.70;15.27;;;;;;;10.92;100.00;101716.28;5014832;28;20037;-67
2023/09/15 03:04:48;;;;;;;17.15;15.48;;;;;;;10.90;100.00;101713.66;5000254;28;20033;-66
2023/09/15 03:07:14;;;;;;;17.40;14.82;;;;;;;10.89;100.00;101711.06;5017395;28;20100;-67
2023/09/15 03:09:39;;;;;;;16.92;15.32;;;;;;;10.89;100.00;101711.06;5018531;28;20052;-67
2023/09/15 03:12:05;;;;;;;17.63;15.85;;;;;;;10.87;100.00;101715.59;5017425;28;20072;-68
2023/09/15 03:14:31;;;;;;;16.98;15.23;;;;;;;10.88;100.00;101714.66;5016259;28;20542;-67
2023/09/15 03:16:57;;;;;;;16.85;15.25;;;;;;;10.86;100.00;101705.84;5015922;28;20029;-67
2023/09/15 03:19:24;;;;;;;17.13;15.35;;;;;;;10.83;100.00;101709.50;5015405;28;20037;-67
2023/09/15 03:21:49;;;;;;;16.75;15.15;;;;;;;10.84;100.00;101705.91;5015004;28;20109;-67
2023/09/15 03:24:15;;;;;;;16.95;15.25;;;;;;;10.80;100.00;101706.09;5018260;28;20132;-67
2023/09/15 03:26:40;;;;;;;16.52;14.77;;;;;;;10.81;100.00;101702.50;5019077;28;20037;-67
2023/09/15 03:29:06;;;;;;;16.25;14.65;;;;;;;10.78;100.00;101695.47;5016009;28;20013;-66
2023/09/15 03:31:32;;;;;;;16.95;15.25;;;;;;;10.79;100.00;101699.03;5019297;28;20566;-68
2023/09/15 03:33:57;;;;;;;16.55;15.02;;;;;;;10.73;100.00;101697.44;5019774;28;20053;-67
2023/09/15 03:36:25;;;;;;;16.40;14.80;;;;;;;10.77;100.00;101692.88;5020574;28;20037;-70
2023/09/15 03:38:51;;;;;;;16.98;15.30;;;;;;;10.71;100.00;101702.84;5022634;28;20092;-70
2023/09/15 03:41:17;;;;;;;16.15;14.55;;;;;;;10.71;100.00;101697.53;5020196;28;20483;-68
2023/09/15 03:43:42;;;;;;;16.90;15.32;;;;;;;10.61;100.00;101700.56;5020185;28;20041;-69
2023/09/15 03:46:08;;;;;;;17.08;15.20;;;;;;;10.54;100.00;101691.09;5018041;28;20479;-67
2023/09/15 03:48:33;;;;;;;15.48;13.98;;;;;;;10.54;100.00;101689.31;5019366;28;20534;-68
2023/09/15 03:50:59;;;;;;;14.95;13.48;;;;;;;10.51;100.00;101696.53;5018424;28;20121;-70
2023/09/15 03:53:25;;;;;;;14.02;12.63;;;;;;;10.44;100.00;101699.41;5019377;28;20336;-67
2023/09/15 03:55:51;;;;;;;14.90;13.50;;;;;;;10.35;100.00;101691.75;5017496;28;20132;-70
2023/09/15 03:58:17;;;;;;;14.77;13.40;;;;;;;10.36;100.00;101687.28;5015855;28;20407;-68
2023/09/15 04:00:43;;;;;;;14.35;12.95;;;;;;;10.32;100.00;101689.19;5019035;28;20041;-68
2023/09/15 04:03:08;;;;;;;13.25;12.13;;;;;;;10.28;100.00;101692.03;5019851;28;20033;-67
2023/09/15 04:05:35;;;;;;;13.80;12.50;;;;;;;10.25;100.00;101689.50;5019241;28;20029;-68
2023/09/15 04:08:00;;;;;;;13.75;12.52;;;;;;;10.22;100.00;101685.13;5020960;28;20025;-68
2023/09/15 04:10:26;;;;;;;13.18;11.98;;;;;;;10.14;100.00;101688.03;5015881;28;20034;-68
2023/09/15 04:12:51;;;;;;;13.85;12.55;;;;;;;10.18;100.00;101692.34;5019685;28;20061;-67
2023/09/15 04:15:16;;;;;;;13.63;12.32;;;;;;;10.15;100.00;101691.56;5017121;28;20467;-68
2023/09/15 04:17:42;;;;;;;13.48;12.07;;;;;;;10.12;100.00;101691.69;5018551;28;20030;-67
2023/09/15 04:20:09;;;;;;;13.65;12.45;;;;;;;10.08;100.00;101692.72;5019598;28;20029;-66
2023/09/15 04:22:40;;;;;;;13.23;12.00;;;;;;;10.09;100.00;101684.69;5017987;28;20034;-67
2023/09/15 04:25:07;;;;;;;13.02;11.93;;;;;;;9.96;100.00;101683.38;5018390;28;20041;-66
2023/09/15 04:27:33;;;;;;;13.63;12.38;;;;;;;9.95;100.00;101684.31;5021184;28;20025;-66
2023/09/15 04:29:58;;;;;;;13.77;12.48;;;;;;;9.95;100.00;101679.84;5018274;28;20037;-67
2023/09/15 04:32:24;;;;;;;14.55;13.25;;;;;;;9.96;100.00;101681.59;5018894;28;20344;-67
2023/09/15 04:34:50;;;;;;;14.70;13.30;;;;;;;9.98;100.00;101677.06;5019067;28;20109;-67
2023/09/15 04:37:15;;;;;;;15.45;13.95;;;;;;;9.97;100.00;101677.13;5018073;28;20072;-67
2023/09/15 04:39:41;;;;;;;16.83;15.05;;;;;;;9.98;100.00;101677.06;5021414;28;20065;-67
2023/09/15 04:42:06;;;;;;;16.52;14.95;;;;;;;9.98;100.00;101685.03;5017369;28;20029;-67
2023/09/15 04:44:32;;;;;;;16.88;15.23;;;;;;;9.98;100.00;101682.38;5019077;28;20033;-67
2023/09/15 04:46:57;;;;;;;18.13;15.43;;;;;;;9.97;100.00;101685.97;5020056;28;20392;-68
2023/09/15 04:49:22;;;;;;;16.45;14.75;;;;;;;9.96;100.00;101680.72;5020232;28;20068;-67
2023/09/15 04:51:48;;;;;;;18.17;16.38;;;;;;;9.92;100.00;101679.97;5019554;28;20029;-67
2023/09/15 04:54:14;;;;;;;17.95;16.25;;;;;;;9.89;100.00;101668.56;5019175;28;20056;-67
2023/09/15 04:56:39;;;;;;;17.73;15.98;;;;;;;9.90;100.00;101684.44;5004703;28;20025;-67
2023/09/15 04:59:15;;;;;;;17.90;16.20;;;;;;;9.89;100.00;101688.03;5021817;28;20029;-67
2023/09/15 05:01:46;;;;;;;17.17;15.63;;;;;;;9.90;100.00;101692.41;5021994;28;20124;-68
2023/09/15 05:04:18;;;;;;;17.33;15.52;;;;;;;9.90;100.00;101697.75;5022390;28;20140;-67
2023/09/15 05:06:43;;;;;;;18.65;16.75;;;;;;;9.89;100.00;101695.16;5021466;28;20029;-67
2023/09/15 05:09:10;;;;;;;16.77;15.18;;;;;;;9.87;100.00;101697.88;5022762;28;20025;-67
2023/09/15 05:11:36;;;;;;;17.92;16.02;;;;;;;9.88;100.00;101696.94;5019818;28;20637;-67
2023/09/15 05:14:02;;;;;;;16.75;15.20;;;;;;;9.89;100.00;101695.16;5022109;28;20475;-67
2023/09/15 05:16:27;;;;;;;17.70;15.95;;;;;;;9.90;100.00;101700.41;5021710;28;20083;-68
2023/09/15 05:18:53;;;;;;;17.25;15.57;;;;;;;9.88;100.00;101704.91;5021749;28;20037;-68
2023/09/15 05:21:18;;;;;;;16.67;15.05;;;;;;;9.90;100.00;101700.41;5020506;28;20641;-67
2023/09/15 05:23:44;;;;;;;15.93;14.25;;;;;;;9.90;100.00;101702.19;5022006;28;20037;-67
2023/09/15 05:26:09;;;;;;;16.25;14.57;;;;;;;9.92;100.00;101697.72;5021695;28;20548;-68
2023/09/15 05:28:37;;;;;;;15.82;14.23;;;;;;;9.92;100.00;101701.22;5018795;28;20033;-70
2023/09/15 05:31:02;;;;;;;16.05;14.55;;;;;;;9.94;100.00;101704.69;5020308;28;20140;-67
2023/09/15 05:33:28;;;;;;;16.75;14.90;;;;;;;9.96;100.00;101702.00;5022556;28;20468;-68
2023/09/15 05:35:55;;;;;;;16.60;15.00;;;;;;;9.96;100.00;101694.88;5023624;28;20568;-67
2023/09/15 05:38:22;;;;;;;16.15;14.55;;;;;;;9.94;100.00;101699.38;5022534;28;20029;-68
2023/09/15 05:40:47;;;;;;;16.08;14.57;;;;;;;9.94;100.00;101699.38;5022547;28;20026;-70
2023/09/15 05:43:12;;;;;;;17.30;14.90;;;;;;;9.98;100.00;101700.13;5020919;28;20099;-67
2023/09/15 05:45:38;;;;;;;16.42;14.73;;;;;;;9.99;100.00;101699.25;5019652;28;20038;-68
2023/09/15 05:48:04;;;;;;;16.10;14.50;;;;;;;10.02;100.00;101699.13;5019451;28;20544;-67
2023/09/15 05:50:30;;;;;;;18.52;15.38;;;;;;;10.05;100.00;101700.81;5019729;28;20045;-68
2023/09/15 05:52:55;;;;;;;16.13;14.52;;;;;;;10.10;100.00;101693.53;5022402;28;20387;-68
2023/09/15 05:55:20;;;;;;;17.95;16.05;;;;;;;10.11;100.00;101700.56;5022157;28;20107;-68
2023/09/15 05:57:46;;;;;;;16.08;14.40;;;;;;;10.15;100.00;101705.72;5016587;28;20072;-68
2023/09/15 06:00:12;;;;;;;16.45;14.77;;;;;;;10.18;100.00;101696.78;5018796;28;20033;-69
2023/09/15 06:02:37;;;;;;;16.35;14.65;;;;;;;10.22;100.00;101706.41;4997339;28;20035;-68
2023/09/15 06:05:02;;;;;;;15.88;14.20;;;;;;;10.20;100.00;101690.50;5022964;28;20043;-69
2023/09/15 06:07:28;;;;;;;15.27;13.77;;;;;;;10.28;100.00;101705.34;5023202;28;20048;-68
2023/09/15 06:09:53;;;;;;;15.45;13.85;;;;;;;10.36;100.00;101709.44;5007017;28;20091;-68
2023/09/15 06:12:19;;;;;;;15.20;13.68;;;;;;;10.43;100.00;101702.13;5021516;28;20071;-69
2023/09/15 06:14:45;;;;;;;15.95;13.70;;;;;;;10.55;100.00;101706.13;5020697;28;20575;-68
2023/09/15 06:17:12;;;;;;;15.00;13.50;;;;;;;10.77;100.00;101703.53;5016781;28;20116;-69
2023/09/15 06:19:37;;;;;;;14.55;13.05;;;;;;;11.03;100.00;101713.19;5019809;28;20036;-68
2023/09/15 06:22:03;;;;;;;14.35;12.93;;;;;;;11.28;100.00;101705.09;5023379;28;20029;-69
2023/09/15 06:24:28;;;;;;;13.35;12.05;;;;;;;11.55;100.00;101701.31;5021829;28;20045;-68
2023/09/15 06:26:54;;;;;;;13.30;12.00;;;;;;;11.76;100.00;101704.03;5019736;28;20025;-68
2023/09/15 06:29:21;;;;;;;13.52;11.55;;;;;;;12.00;100.00;101704.78;5022359;28;20499;-67
2023/09/15 06:31:46;;;;;;;12.68;11.10;;;;;;;12.21;100.00;101696.72;5023275;28;20124;-67
2023/09/15 06:34:12;;;;;;;12.82;10.57;;;;;;;12.41;100.00;101694.97;5020582;28;20101;-67
2023/09/15 06:36:39;;;;;;;11.98;10.70;;;;;;;12.62;100.00;101693.13;5023647;28;20028;-69
2023/09/15 06:39:07;;;;;;;11.32;9.75;;;;;;;12.90;100.00;101693.56;5024080;28;20391;-68
2023/09/15 06:41:33;;;;;;;11.40;9.68;;;;;;;13.14;100.00;101682.66;5020140;28;20555;-69
2023/09/15 06:43:59;;;;;;;10.60;8.98;;;;;;;13.35;100.00;101686.13;5015901;28;20102;-68
2023/09/15 06:46:25;;;;;;;12.98;9.82;;;;;;;13.47;100.00;101685.53;5023498;28;20132;-68
2023/09/15 06:48:50;;;;;;;10.07;8.90;;;;;;;13.77;100.00;101691.16;5023774;28;20126;-68
2023/09/15 06:51:16;;;;;;;10.68;8.95;;;;;;;14.16;100.00;101684.69;4995128;28;20076;-70
2023/09/15 06:53:41;;;;;;;9.68;8.38;;;;;;;14.34;100.00;101694.44;5023486;28;20022;-68
2023/09/15 06:56:06;;;;;;;8.95;8.15;;;;;;;14.45;100.00;101686.69;5015686;28;20032;-68
2023/09/15 06:58:32;;;;;;;10.43;7.90;;;;;;;14.70;100.00;101693.44;5023296;28;20475;-68
2023/09/15 07:00:57;;;;;;;9.23;8.10;;;;;;;15.01;98.34;101687.25;5027089;28;20034;-69
2023/09/15 07:03:23;;;;;;;8.25;7.45;;;;;;;15.16;96.42;101680.13;5025456;28;20017;-67
2023/09/15 07:05:50;;;;;;;9.65;7.47;;;;;;;15.33;95.67;101689.91;5022619;28;20029;-68
2023/09/15 07:08:15;;;;;;;8.48;7.65;;;;;;;15.51;94.33;101672.75;5021593;28;20607;-68
2023/09/15 07:10:41;;;;;;;11.10;7.70;;;;;;;15.69;94.02;101678.91;5015190;28;20120;-67
2023/09/15 07:13:06;;;;;;;8.50;7.00;;;;;;;15.97;92.33;101680.81;5018902;28;20159;-67
2023/09/15 07:15:35;;;;;;;8.15;7.32;;;;;;;16.26;90.15;101687.09;5023108;28;20468;-68
2023/09/15 07:18:01;;;;;;;9.73;7.60;;;;;;;16.54;88.78;101688.06;4998427;28;20052;-68
2023/09/15 07:20:27;;;;;;;7.47;6.78;;;;;;;16.93;88.06;101677.50;5022861;28;20025;-68
2023/09/15 07:22:52;;;;;;;7.88;6.85;;;;;;;17.02;86.62;101677.88;5023735;28;20048;-67
2023/09/15 07:25:17;;;;;;;7.40;6.70;;;;;;;17.36;84.92;101668.47;5019940;28;20072;-67
2023/09/15 07:27:43;;;;;;;9.27;6.50;;;;;;;17.62;82.33;101669.41;5023317;28;20103;-68
2023/09/15 07:30:10;;;;;;;7.88;6.40;;;;;;;17.96;80.08;101667.13;5014702;28;20033;-68
2023/09/15 07:32:35;;;;;;;7.40;6.18;;;;;;;18.09;80.01;101663.47;5014401;28;20139;-67
2023/09/15 07:35:01;;;;;;;6.93;6.00;;;;;;;18.46;78.57;101662.75;5022512;28;20033;-68
2023/09/15 07:37:26;;;;;;;6.93;5.95;;;;;;;18.70;76.00;101663.72;5021820;28;20030;-67
2023/09/15 07:39:51;;;;;;;9.40;7.00;;;;;;;18.84;75.19;101660.88;5018607;28;20032;-66
2023/09/15 07:42:17;;;;;;;7.80;6.35;;;;;;;19.19;75.17;101660.13;5025078;28;20388;-67
2023/09/15 07:44:43;;;;;;;7.55;6.75;;;;;;;19.03;73.66;101662.25;5000813;28;20029;-67
2023/09/15 07:47:12;;;;;;;7.00;5.55;;;;;;;19.37;73.37;101653.34;5024164;28;20029;-67
2023/09/15 07:49:37;;;;;;;9.55;6.13;;;;;;;20.04;71.81;101662.72;5014917;28;20120;-67
2023/09/15 07:52:03;;;;;;;6.43;5.57;;;;;;;20.31;70.31;101660.53;5018879;28;20220;-67
2023/09/15 07:54:29;;;;;;;6.22;5.50;;;;;;;20.72;69.73;101664.50;5022348;28;20072;-67
2023/09/15 07:56:54;;;;;;;7.10;6.05;;;;;;;21.05;66.89;101660.91;5021533;28;20358;-67
2023/09/15 07:59:20;;;;;;;8.45;5.70;;;;;;;21.37;65.17;101652.00;5022311;28;20041;-67
2023/09/15 08:01:45;;;;;;;6.20;5.60;;;;;;;21.80;64.92;101654.63;5022370;28;20109;-69
2023/09/15 08:04:11;;;;;;;8.38;6.03;;;;;;;21.95;62.67;101659.75;5023105;28;20033;-67
2023/09/15 08:06:36;;;;;;;7.43;5.90;;;;;;;22.39;62.87;101658.59;5022509;28;20112;-67
2023/09/15 08:09:04;;;;;;;6.63;6.03;;;;;;;22.69;60.92;101652.31;5020512;28;20053;-66
2023/09/15 08:11:34;;;;;;;10.45;5.82;;;;;;;22.89;59.72;101658.66;5003346;28;20071;-67
2023/09/15 08:14:00;;;;;;;7.63;5.78;;;;;;;23.08;58.60;101655.19;5005028;28;20083;-67
2023/09/15 08:16:26;;;;;;;8.02;5.55;;;;;;;23.24;57.53;101660.06;5020658;28;20025;-67
2023/09/15 08:18:51;;;;;;;5.47;4.97;;;;;;;23.19;58.23;101657.75;5022143;28;20033;-67
2023/09/15 08:21:17;;;;;;;6.72;5.35;;;;;;;23.62;56.03;101653.81;5018783;28;20030;-67
2023/09/15 08:23:42;;;;;;;6.55;5.63;;;;;;;23.75;54.93;101654.41;5019900;28;20510;-67
2023/09/15 08:26:08;;;;;;;6.47;4.93;;;;;;;24.29;54.81;101658.31;5022583;28;20033;-67
2023/09/15 08:28:33;;;;;;;6.57;5.30;;;;;;;24.33;52.60;101658.88;5023513;28;20380;-66
2023/09/15 08:30:59;;;;;;;6.13;5.13;;;;;;;24.81;51.79;101652.41;5021356;28;20026;-67
2023/09/15 08:33:24;;;;;;;5.90;5.22;;;;;;;25.09;51.27;101648.69;5022411;28;20245;-68
2023/09/15 08:35:51;;;;;;;7.03;4.80;;;;;;;25.30;49.22;101653.84;5021404;28;20033;-68
2023/09/15 08:38:17;;;;;;;5.43;4.93;;;;;;;25.55;48.79;101646.78;5022243;28;20120;-68
2023/09/15 08:40:51;;;;;;;6.63;5.40;;;;;;;25.83;48.53;101646.69;5022493;28;20079;-67
2023/09/15 08:43:17;;;;;;;7.22;4.60;;;;;;;26.14;47.57;101644.38;5022158;28;20029;-67
2023/09/15 08:45:47;;;;;;;6.85;4.97;;;;;;;26.65;46.54;101644.53;5020667;28;20489;-67
2023/09/15 08:48:17;;;;;;;5.57;4.57;;;;;;;27.15;45.93;101644.56;5023519;28;20100;-68
2023/09/15 08:50:43;;;;;;;5.63;4.35;;;;;;;27.45;43.34;101643.06;5020255;28;20258;-68
2023/09/15 08:53:10;;;;;;;5.50;4.88;;;;;;;27.60;43.57;101643.25;5022121;28;20029;-67
2023/09/15 08:55:36;;;;;;;5.32;4.75;;;;;;;28.06;43.53;101643.63;5019067;28;20029;-68
2023/09/15 08:58:03;;;;;;;5.97;4.72;;;;;;;28.40;40.98;101643.41;5023321;28;20410;-68
2023/09/15 09:00:31;;;;;;;5.35;4.47;;;;;;;28.71;40.44;101643.44;5018149;28;20028;-67
2023/09/15 09:02:56;;;;;;;6.38;4.10;;;;;;;28.82;39.45;101638.63;5021486;28;20035;-70
2023/09/15 09:05:24;;;;;;;6.38;4.00;;;;;;;29.18;39.73;101641.69;5020935;28;20386;-69
2023/09/15 09:07:51;;;;;;;4.53;4.13;;;;;;;29.40;37.95;101643.63;5021389;28;20550;-68
2023/09/15 09:10:17;;;;;;;5.22;4.18;;;;;;;29.98;37.32;101633.03;5021823;28;20033;-68
2023/09/15 09:12:43;;;;;;;6.95;4.10;;;;;;;30.49;36.25;101639.53;5021920;28;20068;-68
2023/09/15 09:15:10;;;;;;;5.90;4.07;;;;;;;30.66;35.88;101631.97;5020068;28;20025;-67
2023/09/15 09:17:39;;;;;;;4.80;3.90;;;;;;;30.86;35.15;101639.66;5020002;28;20048;-67
2023/09/15 09:20:06;;;;;;;7.40;4.53;;;;;;;31.34;34.71;101626.25;5020093;28;20095;-67
2023/09/15 09:22:33;;;;;;;4.65;3.63;;;;;;;31.08;34.09;101635.03;5020168;28;20040;-68
2023/09/15 09:24:58;;;;;;;5.00;4.25;;;;;;;31.50;34.21;101628.75;5020008;28;20049;-70
2023/09/15 09:27:34;;;;;;;5.60;3.90;;;;;;;31.66;34.71;101633.13;5017412;28;20292;-68
2023/09/15 09:30:01;;;;;;;5.63;4.13;;;;;;;31.74;34.70;101639.34;5019064;28;20460;-66
2023/09/15 09:32:26;;;;;;;5.75;4.22;;;;;;;31.66;32.90;101636.72;5021397;28;20037;-67
2023/09/15 09:34:53;;;;;;;5.78;4.25;;;;;;;31.61;33.09;101639.22;5017740;28;20480;-67
2023/09/15 09:37:24;;;;;;;5.65;4.00;;;;;;;31.98;33.24;101629.84;5016139;28;20111;-68
2023/09/15 09:39:49;;;;;;;5.70;3.70;;;;;;;32.47;32.40;101630.81;5021960;28;20112;-68
2023/09/15 09:42:14;;;;;;;6.15;4.10;;;;;;;33.03;31.00;101627.91;5022179;28;20565;-68
2023/09/15 09:44:40;;;;;;;4.80;4.30;;;;;;;33.01;30.58;101632.78;5022117;28;20052;-68
2023/09/15 09:47:09;;;;;;;5.78;4.68;;;;;;;33.21;31.95;101630.06;5020661;28;20453;-68
2023/09/15 09:49:35;;;;;;;6.03;3.80;;;;;;;34.01;30.71;101611.69;5017857;28;20345;-69
2023/09/15 09:52:03;;;;;;;4.60;4.07;;;;;;;33.89;29.82;101614.22;5017913;28;20036;-68
2023/09/15 09:54:31;;;;;;;5.05;3.72;;;;;;;34.07;29.35;101619.16;5021344;28;20457;-68
2023/09/15 09:56:57;;;;;;;5.07;4.00;;;;;;;34.42;30.29;101616.09;5018579;28;20021;-68
2023/09/15 09:59:22;;;;;;;4.30;3.90;;;;;;;34.44;28.27;101622.22;5021255;28;20539;-68
2023/09/15 10:01:48;;;;;;;5.32;3.72;;;;;;;34.03;28.94;101615.13;5019219;28;20064;-67
2023/09/15 10:04:13;;;;;;;4.35;3.95;;;;;;;34.08;28.57;101618.06;5019654;28;20041;-67
2023/09/15 10:06:39;;;;;;;4.40;3.83;;;;;;;34.38;28.94;101607.38;5016160;28;20046;-67
2023/09/15 10:09:06;;;;;;;4.68;3.40;;;;;;;34.74;28.25;101614.31;5021136;28;20106;-67
2023/09/15 10:11:35;;;;;;;5.05;3.75;;;;;;;34.60;28.45;101610.72;4999815;28;20048;-68
2023/09/15 10:14:03;;;;;;;4.45;3.72;;;;;;;35.12;27.25;101605.19;5001544;28;20033;-68
2023/09/15 10:16:32;;;;;;;4.50;4.10;;;;;;;34.89;27.47;101606.56;5018915;28;20388;-68
2023/09/15 10:19:02;;;;;;;5.97;4.03;;;;;;;34.68;27.05;101601.34;5016908;28;20034;-67
2023/09/15 10:21:28;;;;;;;4.80;3.97;;;;;;;34.66;27.58;101598.81;5018473;28;20026;-68
2023/09/15 10:24:08;;;;;;;6.32;4.15;;;;;;;34.57;28.64;101591.84;5020632;28;20871;-67
2023/09/15 10:26:37;;;;;;;5.30;3.88;;;;;;;34.97;26.45;101596.31;5021243;28;20037;-68
2023/09/15 10:29:04;;;;;;;4.97;3.92;;;;;;;35.07;27.21;101593.94;5022067;28;20425;-68
2023/09/15 10:31:32;;;;;;;5.47;3.80;;;;;;;35.86;27.31;101579.47;4999754;28;20037;-68
2023/09/15 10:34:05;;;;;;;6.68;3.65;;;;;;;36.39;26.97;101594.75;5018709;28;20056;-67
2023/09/15 10:36:32;;;;;;;5.25;4.28;;;;;;;36.47;25.50;101585.31;5024305;28;20322;-68
2023/09/15 10:38:58;;;;;;;5.35;4.38;;;;;;;37.39;25.79;101577.59;5022662;28;20026;-68
2023/09/15 10:41:26;;;;;;;5.22;3.80;;;;;;;37.72;24.40;101576.22;5015299;28;20053;-69
2023/09/15 10:43:51;;;;;;;4.38;3.97;;;;;;;37.70;24.22;101575.59;5025441;28;20033;-69
2023/09/15 10:46:16;;;;;;;6.07;3.67;;;;;;;37.67;24.52;101573.34;5025357;28;20076;-69
2023/09/15 10:48:44;;;;;;;5.45;3.60;;;;;;;37.88;24.16;101568.03;5023906;28;20056;-68
2023/09/15 10:51:11;;;;;;;4.97;3.83;;;;;;;37.76;24.45;101558.84;5008272;28;20052;-68
2023/09/15 10:53:45;;;;;;;4.90;4.18;;;;;;;37.98;25.17;101572.13;5017702;28;20165;-68
2023/09/15 10:56:12;;;;;;;4.75;3.60;;;;;;;37.96;23.60;101564.06;5024440;28;20028;-70
2023/09/15 10:58:38;;;;;;;4.95;3.90;;;;;;;38.39;23.06;101557.22;5022041;28;20037;-69
2023/09/15 11:01:08;;;;;;;5.72;4.32;;;;;;;38.57;22.55;101559.81;5020665;28;20099;-69
2023/09/15 11:03:36;;;;;;;5.75;3.67;;;;;;;38.65;24.01;101555.81;5023460;28;20050;-67
2023/09/15 11:06:02;;;;;;;4.82;3.25;;;;;;;38.55;23.54;101556.47;5021206;28;20037;-69
2023/09/15 11:08:29;;;;;;;7.20;4.00;;;;;;;38.62;23.65;101556.28;5020082;28;20028;-70
2023/09/15 11:11:07;;;;;;;5.03;3.88;;;;;;;39.18;24.14;101553.78;5018022;28;20633;-69